Time;durP1;ratioP1;P1;durP2;ratioP2;P2;SDS_P1;SDS_P2;PMS_P1;PMS_P2;Temp;Humidity;BMP_temperature;BMP_pressure;BME280_temperature;BME280_humidity;BME280_pressure;Samples;Min_cycle;Max_cycle;Signal;HPM_P1;HPM_P2
2022/06/30 00:00:29;;;;;;;1999.90;999.90;;;21.20;99.90;;;;;;4973070;28;20383;-72
2022/06/30 00:02:54;;;;;;;1999.90;999.90;;;21.20;99.90;;;;;;4973309;28;20182;-72
2022/06/30 00:05:20;;;;;;;1999.90;999.90;;;21.20;99.90;;;;;;4976870;28;20170;-72
2022/06/30 00:07:45;;;;;;;1999.90;999.90;;;21.10;99.90;;;;;;4976671;28;20192;-72
2022/06/30 00:10:11;;;;;;;1999.90;999.90;;;21.10;99.90;;;;;;4976795;28;20569;-72
2022/06/30 00:12:38;;;;;;;1999.90;999.90;;;21.20;99.90;;;;;;4976752;28;20223;-72
2022/06/30 00:15:05;;;;;;;1999.90;999.90;;;21.10;99.90;;;;;;4976694;28;20382;-72
2022/06/30 00:17:31;;;;;;;1999.90;999.90;;;21.10;99.90;;;;;;4975950;28;21030;-72
2022/06/30 00:19:56;;;;;;;1999.90;999.90;;;21.10;99.90;;;;;;4976641;28;20399;-72
2022/06/30 00:22:22;;;;;;;1999.90;999.90;;;21.10;99.90;;;;;;4976589;28;20169;-72
2022/06/30 00:24:47;;;;;;;1999.90;999.90;;;21.10;99.90;;;;;;4976505;28;20239;-72
2022/06/30 00:27:13;;;;;;;1999.90;999.90;;;21.10;99.90;;;;;;4976143;28;20179;-71
2022/06/30 00:29:39;;;;;;;1999.90;999.90;;;21.10;99.90;;;;;;4976408;28;20192;-73
2022/06/30 00:32:05;;;;;;;1999.90;999.90;;;21.10;99.90;;;;;;4976278;28;20212;-72
2022/06/30 00:34:31;;;;;;;1999.90;999.90;;;20.90;99.90;;;;;;4976291;28;20173;-72
2022/06/30 00:36:56;;;;;;;1999.90;999.90;;;20.80;99.90;;;;;;4975870;28;20451;-72
2022/06/30 00:39:22;;;;;;;1999.90;999.90;;;20.80;99.90;;;;;;4976395;28;20710;-72
2022/06/30 00:41:48;;;;;;;1999.90;999.90;;;20.70;99.90;;;;;;4976251;28;20197;-72
2022/06/30 00:44:14;;;;;;;1999.90;999.90;;;20.60;99.90;;;;;;4976121;28;20408;-71
2022/06/30 00:46:40;;;;;;;1999.90;999.90;;;20.70;99.90;;;;;;4975790;28;20209;-73
2022/06/30 00:49:06;;;;;;;1999.90;999.90;;;20.60;99.90;;;;;;4976017;28;20300;-73
2022/06/30 00:51:32;;;;;;;1999.90;999.90;;;20.60;99.90;;;;;;4976071;28;20388;-72
2022/06/30 00:54:01;;;;;;;1999.90;999.90;;;20.50;99.90;;;;;;4976003;28;20419;-72
2022/06/30 00:56:27;;;;;;;1999.90;999.90;;;20.40;99.90;;;;;;4975673;28;20841;-72
2022/06/30 00:58:55;;;;;;;1999.90;999.90;;;20.40;99.90;;;;;;4975924;28;20408;-72
2022/06/30 01:01:23;;;;;;;1999.90;999.90;;;20.40;99.90;;;;;;4975765;28;20168;-72
2022/06/30 01:03:50;;;;;;;1999.90;999.90;;;20.40;99.90;;;;;;4975872;28;20461;-72
2022/06/30 01:06:17;;;;;;;1999.90;999.90;;;20.50;99.90;;;;;;4975470;28;20384;-72
2022/06/30 01:08:43;;;;;;;1999.90;999.90;;;20.40;99.90;;;;;;4975833;28;20431;-72
2022/06/30 01:13:53;;;;;;;1999.90;999.90;;;20.40;99.90;;;;;;4975098;28;20386;-72
2022/06/30 01:16:21;;;;;;;1999.90;999.90;;;20.40;99.90;;;;;;4975134;28;20466;-72
2022/06/30 01:18:47;;;;;;;1999.90;999.90;;;20.50;99.90;;;;;;4975459;28;20432;-72
2022/06/30 01:21:12;;;;;;;1999.90;999.90;;;20.50;99.90;;;;;;4975451;28;20818;-71
2022/06/30 01:23:38;;;;;;;1999.90;999.90;;;20.50;99.90;;;;;;4974245;28;20178;-73
2022/06/30 01:26:04;;;;;;;1999.90;999.90;;;20.50;99.90;;;;;;4975158;28;20267;-72
2022/06/30 01:28:29;;;;;;;1999.90;999.90;;;20.50;99.90;;;;;;4975229;28;20558;-72
2022/06/30 01:30:56;;;;;;;1999.90;999.90;;;20.40;99.90;;;;;;4975310;28;20181;-72
2022/06/30 01:33:22;;;;;;;1999.90;999.90;;;20.40;99.90;;;;;;4975498;28;20189;-72
2022/06/30 01:35:48;;;;;;;1999.90;999.90;;;20.30;99.90;;;;;;4975220;28;20413;-72
2022/06/30 01:38:13;;;;;;;1999.90;999.90;;;20.20;99.90;;;;;;4974787;28;20206;-72
2022/06/30 01:40:39;;;;;;;1999.90;999.90;;;20.20;99.90;;;;;;4975304;28;20169;-73
2022/06/30 01:43:06;;;;;;;1999.90;999.90;;;20.10;99.90;;;;;;4975046;28;20826;-72
2022/06/30 01:45:32;;;;;;;1999.90;999.90;;;20.10;99.90;;;;;;4975016;28;20662;-73
2022/06/30 01:47:59;;;;;;;1999.90;999.90;;;20.00;99.90;;;;;;4974808;28;20813;-72
2022/06/30 01:50:27;;;;;;;1999.90;999.90;;;20.00;99.90;;;;;;4974990;28;20417;-72
2022/06/30 01:52:53;;;;;;;1999.90;999.90;;;19.90;99.90;;;;;;4974983;28;20407;-72
2022/06/30 01:55:19;;;;;;;1999.90;999.90;;;19.80;99.90;;;;;;4974831;28;20764;-73
2022/06/30 01:57:45;;;;;;;1999.90;999.90;;;19.80;99.90;;;;;;4974450;28;20195;-73
2022/06/30 02:00:14;;;;;;;1999.90;999.90;;;19.80;99.90;;;;;;4974797;28;20458;-73
2022/06/30 02:02:40;;;;;;;1999.90;999.90;;;19.70;99.90;;;;;;4974846;28;20823;-72
2022/06/30 02:05:07;;;;;;;1999.90;999.90;;;19.70;99.90;;;;;;4974698;28;20381;-72
2022/06/30 02:07:36;;;;;;;1999.90;999.90;;;19.60;99.90;;;;;;4974285;28;20465;-72
2022/06/30 02:10:07;;;;;;;1999.90;999.90;;;19.40;99.90;;;;;;4974646;28;20448;-72
2022/06/30 02:12:45;;;;;;;1999.90;999.90;;;19.50;99.90;;;;;;4974610;28;20385;-72
2022/06/30 02:15:20;;;;;;;1999.90;999.90;;;19.40;99.90;;;;;;4974483;28;20421;-72
2022/06/30 02:17:48;;;;;;;1999.90;999.90;;;19.30;99.90;;;;;;4974019;28;20460;-72
2022/06/30 02:20:14;;;;;;;1999.90;999.90;;;19.20;99.90;;;;;;4974452;28;20976;-73
2022/06/30 02:22:41;;;;;;;1999.90;999.90;;;19.20;99.90;;;;;;4974324;28;20406;-73
2022/06/30 02:25:08;;;;;;;1999.90;999.90;;;19.20;99.90;;;;;;4974079;28;20190;-72
2022/06/30 02:27:34;;;;;;;1999.90;999.90;;;19.30;99.90;;;;;;4973387;28;21104;-73
2022/06/30 02:30:00;;;;;;;1999.90;999.90;;;19.40;99.90;;;;;;4974383;28;20385;-73
2022/06/30 02:32:26;;;;;;;1999.90;999.90;;;19.30;99.90;;;;;;4974269;28;20430;-73
2022/06/30 02:34:52;;;;;;;1999.90;999.90;;;19.30;99.90;;;;;;4974158;28;20381;-73
2022/06/30 02:37:18;;;;;;;1999.90;999.90;;;19.20;99.90;;;;;;4973672;28;20212;-73
2022/06/30 02:39:44;;;;;;;1999.90;999.90;;;19.20;99.90;;;;;;4974198;28;20415;-73
2022/06/30 02:42:10;;;;;;;1999.90;999.90;;;19.10;99.90;;;;;;4973956;28;20400;-72
2022/06/30 02:44:36;;;;;;;1999.90;999.90;;;19.10;99.90;;;;;;4974006;28;20407;-72
2022/06/30 02:47:03;;;;;;;1999.90;999.90;;;19.20;99.90;;;;;;4973642;28;20851;-72
2022/06/30 02:49:29;;;;;;;1999.90;999.90;;;19.20;99.90;;;;;;4973836;28;20508;-73
2022/06/30 02:51:55;;;;;;;1999.90;999.90;;;19.30;99.90;;;;;;4974343;28;20377;-73
2022/06/30 02:54:20;;;;;;;1999.90;999.90;;;19.40;99.90;;;;;;4973778;28;20415;-72
2022/06/30 02:56:47;;;;;;;1999.90;999.90;;;19.40;99.90;;;;;;4973418;28;20830;-73
2022/06/30 02:59:13;;;;;;;1999.90;999.90;;;19.30;99.90;;;;;;4971588;28;20286;-72
2022/06/30 03:01:39;;;;;;;1999.90;999.90;;;19.30;99.90;;;;;;4973730;28;20415;-71
2022/06/30 03:04:04;;;;;;;1999.90;999.90;;;19.30;99.90;;;;;;4973725;28;20394;-73
2022/06/30 03:06:32;;;;;;;1999.90;999.90;;;19.30;99.90;;;;;;4973392;28;20174;-72
2022/06/30 03:08:59;;;;;;;1999.90;999.90;;;19.20;99.90;;;;;;4973524;28;20269;-72
2022/06/30 03:11:25;;;;;;;1999.90;999.90;;;19.20;99.90;;;;;;4973570;28;20380;-73
2022/06/30 03:13:51;;;;;;;1999.90;999.90;;;19.00;99.90;;;;;;4973449;28;20413;-73
2022/06/30 03:16:17;;;;;;;1999.90;999.90;;;19.00;99.90;;;;;;4973162;28;20384;-72
2022/06/30 03:18:43;;;;;;;1999.90;999.90;;;18.90;99.90;;;;;;4973964;28;20292;-72
2022/06/30 03:21:09;;;;;;;1999.90;999.90;;;18.90;99.90;;;;;;4973523;28;20869;-73
2022/06/30 03:23:35;;;;;;;1999.90;999.90;;;18.90;99.90;;;;;;4973630;28;20445;-72
2022/06/30 03:26:01;;;;;;;1999.90;999.90;;;18.80;99.90;;;;;;4973179;28;20166;-72
2022/06/30 03:28:27;;;;;;;1999.90;999.90;;;18.80;99.90;;;;;;4973444;28;20194;-72
2022/06/30 03:30:53;;;;;;;1999.90;999.90;;;18.70;99.90;;;;;;4973446;28;20405;-73
2022/06/30 03:33:19;;;;;;;1999.90;999.90;;;18.70;99.90;;;;;;4973494;28;20167;-72
2022/06/30 03:35:46;;;;;;;1999.90;999.90;;;18.60;99.90;;;;;;4973288;28;20180;-72
2022/06/30 03:38:12;;;;;;;1999.90;999.90;;;18.60;99.90;;;;;;4972710;28;20467;-72
2022/06/30 03:40:38;;;;;;;1999.90;999.90;;;18.60;99.90;;;;;;4973405;28;20402;-72
2022/06/30 03:43:04;;;;;;;1999.90;999.90;;;18.50;99.90;;;;;;4973307;28;21115;-72
2022/06/30 03:45:30;;;;;;;1999.90;999.90;;;18.50;99.90;;;;;;4973480;28;20405;-72
2022/06/30 03:47:56;;;;;;;1999.90;999.90;;;18.50;99.90;;;;;;4973126;28;20520;-72
2022/06/30 03:50:21;;;;;;;1999.90;999.90;;;18.50;99.90;;;;;;4973538;28;20410;-72
2022/06/30 03:52:47;;;;;;;1999.90;999.90;;;18.50;99.90;;;;;;4973395;28;20178;-72
2022/06/30 03:55:13;;;;;;;1999.90;999.90;;;18.50;99.90;;;;;;4973440;28;20210;-72
2022/06/30 03:57:39;;;;;;;1999.90;999.90;;;18.50;99.90;;;;;;4972953;28;20198;-72
2022/06/30 04:00:06;;;;;;;1999.90;999.90;;;18.50;99.90;;;;;;4973395;28;20909;-72
2022/06/30 04:02:32;;;;;;;1999.90;999.90;;;18.50;99.90;;;;;;4973225;28;20175;-72
2022/06/30 04:04:58;;;;;;;1999.90;999.90;;;18.50;99.90;;;;;;4973359;28;20413;-72
2022/06/30 04:07:24;;;;;;;1999.90;999.90;;;18.60;99.90;;;;;;4972952;28;20409;-72
2022/06/30 04:09:50;;;;;;;1999.90;999.90;;;18.60;99.90;;;;;;4973302;28;20174;-72
2022/06/30 04:12:15;;;;;;;1999.90;999.90;;;18.60;99.90;;;;;;4973137;28;20376;-72
2022/06/30 04:14:42;;;;;;;1999.90;999.90;;;18.70;99.90;;;;;;4973056;28;20413;-72
2022/06/30 04:17:08;;;;;;;1999.90;999.90;;;18.70;99.90;;;;;;4972937;28;20207;-72
2022/06/30 04:19:34;;;;;;;1999.90;999.90;;;18.70;99.90;;;;;;4972874;28;20423;-72
2022/06/30 04:22:00;;;;;;;1999.90;999.90;;;18.80;99.90;;;;;;4973168;28;20376;-72
2022/06/30 04:24:25;;;;;;;1999.90;999.90;;;18.80;99.90;;;;;;4973128;28;20387;-72
2022/06/30 04:26:51;;;;;;;1999.90;999.90;;;18.90;99.90;;;;;;4972750;28;20198;-72
2022/06/30 04:29:16;;;;;;;1999.90;999.90;;;18.90;99.90;;;;;;4973078;28;20219;-72
2022/06/30 04:34:26;;;;;;;1999.90;999.90;;;19.00;99.90;;;;;;4973125;28;20225;-72
2022/06/30 04:36:52;;;;;;;1999.90;999.90;;;19.00;99.90;;;;;;4972584;28;20432;-72
2022/06/30 04:39:18;;;;;;;1999.90;999.90;;;19.10;99.90;;;;;;4972836;28;20190;-72
2022/06/30 04:41:43;;;;;;;1999.90;999.90;;;19.10;99.90;;;;;;4972969;28;20243;-72
2022/06/30 04:44:09;;;;;;;1999.90;999.90;;;19.10;99.90;;;;;;4973021;28;20203;-72
2022/06/30 04:46:34;;;;;;;1999.90;999.90;;;19.10;99.90;;;;;;4972710;28;20179;-72
2022/06/30 04:49:00;;;;;;;1999.90;999.90;;;19.10;99.90;;;;;;4973523;28;20241;-72
2022/06/30 04:51:26;;;;;;;1999.90;999.90;;;19.20;99.90;;;;;;4976487;28;20190;-72
2022/06/30 04:53:52;;;;;;;1999.90;999.90;;;19.20;99.90;;;;;;4976469;28;20172;-72
2022/06/30 04:56:18;;;;;;;1999.90;999.90;;;19.30;99.90;;;;;;4975940;28;20197;-72
2022/06/30 04:58:44;;;;;;;1999.90;999.90;;;19.30;99.90;;;;;;4976056;28;20412;-72
2022/06/30 05:01:10;;;;;;;1999.90;999.90;;;19.40;99.90;;;;;;4976347;28;20874;-72
2022/06/30 05:03:36;;;;;;;1999.90;999.90;;;19.50;99.90;;;;;;4976073;28;20396;-72
2022/06/30 05:06:03;;;;;;;1999.90;999.90;;;19.50;99.90;;;;;;4975925;28;20413;-72
2022/06/30 05:08:29;;;;;;;1999.90;999.90;;;19.60;99.90;;;;;;4975854;28;20402;-72
2022/06/30 05:10:54;;;;;;;1999.90;999.90;;;19.70;99.90;;;;;;4976006;28;20480;-72
2022/06/30 05:13:20;;;;;;;1999.90;999.90;;;19.70;99.90;;;;;;4976115;28;20255;-72
2022/06/30 05:15:46;;;;;;;1999.90;999.90;;;19.80;99.90;;;;;;4975779;28;20223;-72
2022/06/30 05:18:13;;;;;;;1999.90;999.90;;;19.80;99.90;;;;;;4975261;28;20283;-73
2022/06/30 05:20:40;;;;;;;1999.90;999.90;;;19.90;99.90;;;;;;4975716;28;20274;-72
2022/06/30 05:23:06;;;;;;;1999.90;999.90;;;20.00;99.90;;;;;;4975548;28;20880;-72
2022/06/30 05:28:16;;;;;;;1999.90;999.90;;;20.10;99.90;;;;;;4975296;28;20457;-72
2022/06/30 05:30:42;;;;;;;1999.90;999.90;;;20.20;99.90;;;;;;4975428;28;20937;-72
2022/06/30 05:33:10;;;;;;;1999.90;999.90;;;20.20;99.90;;;;;;4975385;28;20412;-72
2022/06/30 05:35:36;;;;;;;1999.90;999.90;;;20.30;99.90;;;;;;4975335;28;20205;-72
2022/06/30 05:38:02;;;;;;;1999.90;999.90;;;20.40;99.90;;;;;;4974894;28;20430;-72
2022/06/30 05:40:29;;;;;;;1999.90;999.90;;;20.50;99.90;;;;;;4975289;28;20232;-72
2022/06/30 05:42:54;;;;;;;1999.90;999.90;;;20.50;99.90;;;;;;4975402;28;20198;-72
2022/06/30 05:45:20;;;;;;;1999.90;999.90;;;20.50;99.90;;;;;;4975264;28;20793;-72
2022/06/30 05:47:51;;;;;;;1999.90;999.90;;;20.60;99.90;;;;;;4974755;28;20615;-72
2022/06/30 05:50:18;;;;;;;1999.90;999.90;;;20.70;99.90;;;;;;4975160;28;20175;-72
2022/06/30 05:52:44;;;;;;;1999.90;999.90;;;20.80;99.90;;;;;;4975089;28;20409;-72
2022/06/30 05:55:10;;;;;;;1999.90;999.90;;;20.90;99.90;;;;;;4975084;28;20447;-72
2022/06/30 05:57:58;;;;;;;1999.90;999.90;;;20.90;99.90;;;;;;4974454;28;20206;-72
2022/06/30 06:00:27;;;;;;;1999.90;999.90;;;21.10;99.90;;;;;;4974645;28;20397;-72
2022/06/30 06:02:53;;;;;;;1999.90;999.90;;;21.20;99.90;;;;;;4974940;28;20378;-72
2022/06/30 06:05:18;;;;;;;1999.90;999.90;;;21.20;99.90;;;;;;4974824;28;20471;-72
2022/06/30 06:07:44;;;;;;;1999.90;999.90;;;21.40;99.90;;;;;;4974316;28;20198;-72
2022/06/30 06:10:11;;;;;;;1999.90;999.90;;;21.50;99.90;;;;;;4974626;28;20169;-72
2022/06/30 06:12:37;;;;;;;1999.90;999.90;;;21.50;99.90;;;;;;4974532;28;20178;-72
2022/06/30 06:15:03;;;;;;;1999.90;999.90;;;21.60;99.90;;;;;;4974602;28;20922;-73
2022/06/30 06:17:30;;;;;;;1999.90;999.90;;;21.70;99.90;;;;;;4973924;28;20439;-73
2022/06/30 06:19:56;;;;;;;1999.90;999.90;;;21.80;99.90;;;;;;4974708;28;20885;-72
2022/06/30 06:22:22;;;;;;;1999.90;999.90;;;21.90;99.90;;;;;;4974567;28;20384;-72
2022/06/30 06:24:47;;;;;;;1999.90;999.90;;;22.00;99.90;;;;;;4974452;28;20454;-72
2022/06/30 06:27:13;;;;;;;1999.90;999.90;;;22.10;99.90;;;;;;4974134;28;20193;-72
2022/06/30 06:29:38;;;;;;;1999.90;999.90;;;22.10;99.90;;;;;;4974494;28;20190;-72
2022/06/30 06:32:04;;;;;;;1999.90;999.90;;;22.20;99.90;;;;;;4974556;28;20185;-72
2022/06/30 06:34:30;;;;;;;1999.90;999.90;;;22.20;99.90;;;;;;4974453;28;20177;-72
2022/06/30 06:36:56;;;;;;;1999.90;999.90;;;22.30;99.90;;;;;;4973834;28;20430;-72
2022/06/30 06:39:21;;;;;;;1999.90;999.90;;;22.40;99.90;;;;;;4974499;28;20220;-72
2022/06/30 06:41:47;;;;;;;1999.90;999.90;;;22.40;99.90;;;;;;4974342;28;20170;-72
2022/06/30 06:44:12;;;;;;;1999.90;999.90;;;22.40;99.90;;;;;;4974471;28;20195;-73
2022/06/30 06:46:38;;;;;;;1999.90;999.90;;;22.40;99.90;;;;;;4973894;28;20213;-73
2022/06/30 06:49:09;;;;;;;1999.90;999.90;;;22.40;99.90;;;;;;4974118;28;20197;-73
2022/06/30 06:51:35;;;;;;;1999.90;999.90;;;22.50;99.90;;;;;;4974057;28;20387;-73
2022/06/30 06:54:01;;;;;;;1999.90;999.90;;;22.60;99.90;;;;;;4972907;28;20765;-73
2022/06/30 06:56:27;;;;;;;1999.90;999.90;;;22.70;99.90;;;;;;4973609;28;20590;-73
2022/06/30 06:58:53;;;;;;;1999.90;999.90;;;22.90;99.90;;;;;;4973780;28;20425;-73
2022/06/30 07:01:19;;;;;;;1999.90;999.90;;;23.00;99.90;;;;;;4973891;28;20433;-73
2022/06/30 07:03:45;;;;;;;1999.90;999.90;;;23.20;99.90;;;;;;4973830;28;20177;-73
2022/06/30 07:06:11;;;;;;;1999.90;999.90;;;23.30;99.90;;;;;;4973620;28;20189;-73
2022/06/30 07:08:36;;;;;;;1999.90;999.90;;;23.30;99.90;;;;;;4973746;28;20438;-73
2022/06/30 07:11:03;;;;;;;1999.90;999.90;;;23.40;99.90;;;;;;4973779;28;20542;-73
2022/06/30 07:13:30;;;;;;;1999.90;999.90;;;23.50;99.90;;;;;;4973188;28;20174;-72
2022/06/30 07:15:56;;;;;;;1999.90;999.90;;;23.60;99.90;;;;;;4973500;28;20411;-73
2022/06/30 07:18:22;;;;;;;1999.90;999.90;;;23.70;99.90;;;;;;4973177;28;20531;-73
2022/06/30 07:20:49;;;;;;;1999.90;999.90;;;23.70;99.90;;;;;;4973622;28;20485;-72
2022/06/30 07:23:15;;;;;;;1999.90;999.90;;;23.80;99.90;;;;;;4973558;28;20180;-73
2022/06/30 07:25:41;;;;;;;1999.90;999.90;;;23.80;99.90;;;;;;4973442;28;20380;-73
2022/06/30 07:28:07;;;;;;;1999.90;999.90;;;23.70;99.90;;;;;;4972969;28;20193;-72
2022/06/30 07:30:32;;;;;;;1999.90;999.90;;;23.70;99.90;;;;;;4973362;28;20185;-72
2022/06/30 07:32:58;;;;;;;1999.90;999.90;;;23.60;99.90;;;;;;4973388;28;20257;-73
2022/06/30 07:35:24;;;;;;;1999.90;999.90;;;23.60;99.90;;;;;;4973214;28;20236;-73
2022/06/30 07:37:50;;;;;;;1999.90;999.90;;;23.60;99.90;;;;;;4971607;28;20525;-73
2022/06/30 07:40:15;;;;;;;1999.90;999.90;;;23.70;99.90;;;;;;4973257;28;20170;-72
2022/06/30 07:42:42;;;;;;;1999.90;999.90;;;23.80;99.90;;;;;;4973212;28;20166;-73
2022/06/30 07:45:08;;;;;;;1999.90;999.90;;;23.70;99.90;;;;;;4973250;28;20735;-72
2022/06/30 07:47:34;;;;;;;1999.90;999.90;;;23.60;99.90;;;;;;4972778;28;20391;-73
2022/06/30 07:50:00;;;;;;;1999.90;999.90;;;23.60;99.90;;;;;;4973158;28;20418;-72
2022/06/30 07:52:26;;;;;;;1999.90;999.90;;;23.80;99.90;;;;;;4973389;28;20895;-72
2022/06/30 07:54:52;;;;;;;1999.90;999.90;;;23.90;99.90;;;;;;4973116;28;20493;-72
2022/06/30 07:57:19;;;;;;;1999.90;999.90;;;23.90;99.90;;;;;;4972763;28;20908;-73
2022/06/30 07:59:45;;;;;;;1999.90;999.90;;;23.90;99.90;;;;;;4973202;28;20400;-73
2022/06/30 08:02:11;;;;;;;1999.90;999.90;;;24.00;99.90;;;;;;4973014;28;20428;-73
2022/06/30 08:04:37;;;;;;;1999.90;999.90;;;24.00;99.90;;;;;;4965122;28;20167;-72
2022/06/30 08:07:03;;;;;;;1999.90;999.90;;;24.10;99.90;;;;;;4953409;28;20406;-72
2022/06/30 08:09:30;;;;;;;1999.90;999.90;;;24.20;99.90;;;;;;4953588;28;20452;-72
2022/06/30 08:11:55;;;;;;;1999.90;999.90;;;24.20;99.90;;;;;;4953653;28;20828;-72
2022/06/30 08:14:24;;;;;;;1999.90;999.90;;;24.20;99.90;;;;;;4953720;28;20436;-72
2022/06/30 08:16:49;;;;;;;1999.90;999.90;;;24.30;99.90;;;;;;4953396;28;20571;-72
2022/06/30 08:19:16;;;;;;;1999.90;999.90;;;24.30;99.90;;;;;;4953527;28;20451;-72
2022/06/30 08:21:42;;;;;;;1999.90;999.90;;;24.20;99.90;;;;;;4953670;28;20511;-72
2022/06/30 08:24:08;;;;;;;1999.90;999.90;;;24.30;99.90;;;;;;4954374;28;20403;-72
2022/06/30 08:26:34;;;;;;;1999.90;999.90;;;24.30;99.90;;;;;;4957013;28;20474;-72
2022/06/30 08:29:00;;;;;;;1999.90;999.90;;;24.20;99.90;;;;;;4957171;28;20397;-72
2022/06/30 08:31:27;;;;;;;1999.90;999.90;;;24.20;99.90;;;;;;4957376;28;20178;-72
2022/06/30 08:33:54;;;;;;;1999.90;999.90;;;24.40;99.90;;;;;;4957220;28;20403;-72
2022/06/30 08:36:20;;;;;;;1999.90;999.90;;;24.30;99.90;;;;;;4956769;28;20413;-72
2022/06/30 08:38:46;;;;;;;1999.90;999.90;;;24.40;99.90;;;;;;4952870;29;20520;-72
2022/06/30 08:43:59;;;;;;;1999.90;999.90;;;24.50;99.90;;;;;;4953529;29;20261;-72
2022/06/30 08:46:26;;;;;;;1999.90;999.90;;;24.50;99.90;;;;;;4969519;28;20404;-74
2022/06/30 08:48:53;;;;;;;1999.90;999.90;;;24.60;99.90;;;;;;4975281;28;20437;-74
2022/06/30 08:51:20;;;;;;;1999.90;999.90;;;24.70;99.90;;;;;;4974887;28;20384;-74
2022/06/30 08:54:06;;;;;;;1999.90;999.90;;;24.80;99.90;;;;;;4975527;28;20439;-72
2022/06/30 08:56:34;;;;;;;1999.90;999.90;;;24.80;99.90;;;;;;4974726;28;20408;-72
2022/06/30 08:59:04;;;;;;;1999.90;999.90;;;24.70;99.90;;;;;;4974404;28;20436;-73
2022/06/30 09:01:31;;;;;;;1999.90;999.90;;;24.80;99.90;;;;;;4975320;28;20500;-73
2022/06/30 09:03:57;;;;;;;1999.90;999.90;;;24.90;99.90;;;;;;4977783;28;20770;-75
2022/06/30 09:06:22;;;;;;;1999.90;999.90;;;24.90;99.90;;;;;;4975879;28;20380;-74
2022/06/30 09:08:49;;;;;;;1999.90;999.90;;;24.90;99.90;;;;;;4975171;28;20190;-73
2022/06/30 09:11:15;;;;;;;1999.90;999.90;;;24.90;99.90;;;;;;4975169;28;20175;-73
2022/06/30 09:13:44;;;;;;;1999.90;999.90;;;25.10;99.90;;;;;;4975035;28;20416;-74
2022/06/30 09:16:10;;;;;;;1999.90;999.90;;;25.10;99.90;;;;;;4978772;28;20406;-75
2022/06/30 09:18:35;;;;;;;1999.90;999.90;;;25.20;99.90;;;;;;4978683;28;20440;-74
2022/06/30 09:21:16;;;;;;;1999.90;999.90;;;25.10;99.90;;;;;;4975540;28;20895;-73
2022/06/30 09:23:44;;;;;;;1999.90;999.90;;;25.20;99.90;;;;;;4975077;28;20173;-74
2022/06/30 09:26:17;;;;;;;1999.90;999.90;;;25.10;99.90;;;;;;4975025;28;20392;-73
2022/06/30 09:28:45;;;;;;;1999.90;999.90;;;25.10;99.90;;;;;;4974298;28;21107;-74
2022/06/30 09:31:13;;;;;;;1999.90;999.90;;;25.10;99.90;;;;;;4974730;28;20796;-72
2022/06/30 09:33:41;;;;;;;1999.90;999.90;;;25.20;99.90;;;;;;4974743;28;20385;-72
2022/06/30 09:36:19;;;;;;;1999.90;999.90;;;25.20;99.90;;;;;;4973568;28;20409;-72
2022/06/30 09:39:03;;;;;;;1999.90;999.90;;;25.20;99.90;;;;;;4974512;28;20435;-73
2022/06/30 09:41:31;;;;;;;1999.90;999.90;;;25.30;99.90;;;;;;4974419;28;20435;-72
2022/06/30 09:43:57;;;;;;;1999.90;999.90;;;25.30;99.90;;;;;;4973975;28;20414;-73
2022/06/30 09:46:23;;;;;;;1999.90;999.90;;;25.50;99.90;;;;;;4974233;28;20456;-72
2022/06/30 09:48:49;;;;;;;1999.90;999.90;;;25.70;99.90;;;;;;4974349;28;20428;-73
2022/06/30 09:51:14;;;;;;;1999.90;999.90;;;25.70;99.90;;;;;;4973812;28;20177;-74
2022/06/30 09:53:40;;;;;;;1999.90;999.90;;;25.60;99.90;;;;;;4974309;28;20166;-73
2022/06/30 09:56:12;;;;;;;1999.90;999.90;;;25.70;99.90;;;;;;4961333;28;20278;-73
2022/06/30 09:58:41;;;;;;;1999.90;999.90;;;25.70;99.90;;;;;;4954536;28;20207;-71
2022/06/30 10:01:06;;;;;;;1999.90;999.90;;;25.60;99.90;;;;;;4954632;28;20989;-73
2022/06/30 10:03:32;;;;;;;1999.90;999.90;;;25.60;99.90;;;;;;4954661;28;20439;-73
2022/06/30 10:06:12;;;;;;;1999.90;999.90;;;25.80;99.90;;;;;;4953990;28;20385;-72
2022/06/30 10:08:37;;;;;;;1999.90;999.90;;;25.90;99.90;;;;;;4954485;28;20417;-73
2022/06/30 10:11:04;;;;;;;1999.90;999.90;;;25.80;99.90;;;;;;4954524;28;20382;-73
2022/06/30 10:13:35;;;;;;;1999.90;999.90;;;25.90;99.90;;;;;;4954235;28;20853;-72
2022/06/30 10:16:03;;;;;;;1999.90;999.90;;;26.10;99.90;;;;;;4954469;28;20424;-73
2022/06/30 10:18:29;;;;;;;1999.90;999.90;;;26.30;99.90;;;;;;4954205;28;20470;-73
2022/06/30 10:20:56;;;;;;;1999.90;999.90;;;26.50;99.90;;;;;;4953886;28;20501;-73
2022/06/30 10:23:23;;;;;;;1999.90;999.90;;;26.60;99.90;;;;;;4954705;28;20778;-73
2022/06/30 10:25:54;;;;;;;1999.90;999.90;;;26.60;99.90;;;;;;4954324;28;20406;-73
2022/06/30 10:28:22;;;;;;;1999.90;999.90;;;26.50;99.90;;;;;;4953662;28;20401;-73
2022/06/30 10:30:47;;;;;;;1999.90;999.90;;;26.50;99.90;;;;;;4954307;28;20726;-73
2022/06/30 10:33:21;;;;;;;1999.90;999.90;;;26.50;99.90;;;;;;4954207;28;20381;-73
2022/06/30 10:35:54;;;;;;;1999.90;999.90;;;26.80;99.90;;;;;;4953839;28;20177;-72
2022/06/30 10:38:31;;;;;;;1999.90;999.90;;;26.60;99.90;;;;;;4954053;28;20470;-73
2022/06/30 10:40:57;;;;;;;1999.90;999.90;;;26.60;99.90;;;;;;4953959;28;20417;-73
2022/06/30 10:43:22;;;;;;;1999.90;999.90;;;26.80;99.90;;;;;;4953607;28;20485;-72
2022/06/30 10:46:02;;;;;;;1999.90;999.90;;;27.00;99.90;;;;;;4953820;28;20168;-71
2022/06/30 10:48:53;;;;;;;1999.90;999.90;;;27.10;99.90;;;;;;4953552;28;20222;-74
2022/06/30 10:51:19;;;;;;;1999.90;999.90;;;27.00;99.90;;;;;;4953390;28;20868;-73
2022/06/30 10:53:45;;;;;;;1999.90;999.90;;;26.90;99.90;;;;;;4954026;28;20414;-73
2022/06/30 10:56:11;;;;;;;1999.90;999.90;;;27.00;99.90;;;;;;4953645;28;20411;-73
2022/06/30 10:58:37;;;;;;;1999.90;999.90;;;27.20;99.90;;;;;;4953372;28;20221;-72
2022/06/30 11:01:10;;;;;;;1999.90;999.90;;;27.30;99.90;;;;;;4953764;28;21000;-73
2022/06/30 11:03:35;;;;;;;1999.90;999.90;;;27.30;99.90;;;;;;4953875;28;20442;-73
2022/06/30 11:06:06;;;;;;;1999.90;999.90;;;27.00;99.90;;;;;;4953197;28;20411;-73
2022/06/30 11:11:34;;;;;;;1999.90;999.90;;;27.00;99.90;;;;;;4959224;28;20896;-73
2022/06/30 11:14:03;;;;;;;1999.90;999.90;;;27.20;99.90;;;;;;4982334;28;20775;-73
2022/06/30 11:16:32;;;;;;;1999.90;999.90;;;27.10;99.90;;;;;;4973876;28;20392;-74
2022/06/30 11:18:58;;;;;;;1999.90;999.90;;;27.20;99.90;;;;;;4974148;28;20445;-73
2022/06/30 11:21:24;;;;;;;1999.90;999.90;;;27.40;99.90;;;;;;4974866;28;20406;-73
2022/06/30 11:23:50;;;;;;;1999.90;999.90;;;27.50;99.90;;;;;;4974051;28;20958;-73
2022/06/30 11:29:10;;;;;;;1999.90;999.90;;;27.70;99.90;;;;;;4973892;28;20967;-74
2022/06/30 11:31:38;;;;;;;1999.90;999.90;;;27.70;99.90;;;;;;4973871;28;20449;-73
2022/06/30 11:34:12;;;;;;;1999.90;999.90;;;27.70;99.90;;;;;;4973597;28;20438;-73
2022/06/30 11:36:40;;;;;;;1999.90;999.90;;;27.70;99.90;;;;;;4973261;28;20422;-73
2022/06/30 11:39:10;;;;;;;1999.90;999.90;;;27.80;99.90;;;;;;4974030;28;20809;-73
2022/06/30 11:42:01;;;;;;;1999.90;999.90;;;27.90;99.90;;;;;;4974625;28;20442;-73
2022/06/30 11:44:39;;;;;;;1999.90;999.90;;;28.00;99.90;;;;;;4973463;28;20415;-73
2022/06/30 11:47:15;;;;;;;1999.90;999.90;;;28.10;99.90;;;;;;4973454;28;20444;-73
2022/06/30 11:49:45;;;;;;;1999.90;999.90;;;28.50;99.90;;;;;;4973669;28;20437;-74
2022/06/30 11:52:24;;;;;;;1999.90;999.90;;;28.80;99.90;;;;;;4973634;28;21060;-74
2022/06/30 11:54:49;;;;;;;1999.90;999.90;;;28.90;99.90;;;;;;4973178;28;20409;-74
2022/06/30 11:57:16;;;;;;;1999.90;999.90;;;28.90;99.90;;;;;;4972756;28;20992;-74
2022/06/30 11:59:49;;;;;;;1999.90;999.90;;;29.20;99.90;;;;;;4976894;28;20193;-74
2022/06/30 12:02:15;;;;;;;1999.90;999.90;;;29.40;99.90;;;;;;4977028;28;20818;-73
2022/06/30 12:04:42;;;;;;;1999.90;999.90;;;29.30;99.90;;;;;;4976775;28;20398;-74
2022/06/30 12:07:14;;;;;;;1999.90;999.90;;;29.20;99.90;;;;;;4976912;28;20927;-73
2022/06/30 12:09:44;;;;;;;1999.90;999.90;;;29.50;99.90;;;;;;4976794;28;20429;-73
2022/06/30 12:12:16;;;;;;;1999.90;999.90;;;30.00;99.90;;;;;;4976405;28;20409;-74
2022/06/30 12:14:44;;;;;;;1999.90;999.90;;;30.10;99.30;;;;;;4976837;28;20405;-74